Time;durP1;ratioP1;P1;durP2;ratioP2;P2;SDS_P1;SDS_P2;PMS_P1;PMS_P2;Temp;Humidity;BMP_temperature;BMP_pressure;BME280_temperature;BME280_humidity;BME280_pressure;Samples;Min_cycle;Max_cycle;Signal;HPM_P1;HPM_P2
2022/05/30 00:00:52;;;;;;;2.30;2.10;;;13.70;57.70;;;-142.21;87.74;112049.66;5092291;28;20435;-72
2022/05/30 00:03:20;;;;;;;2.53;2.33;;;13.70;57.80;;;-142.21;87.58;112049.66;5090775;28;20479;-72
2022/05/30 00:05:50;;;;;;;3.00;2.27;;;13.60;57.80;;;-142.21;87.69;112049.66;5087073;28;20481;-72
2022/05/30 00:08:20;;;;;;;2.83;2.30;;;13.60;57.90;;;-142.21;88.33;112049.66;5092121;28;20553;-72
2022/05/30 00:10:47;;;;;;;2.13;2.00;;;13.60;58.10;;;-142.21;87.74;112049.66;5088910;28;20535;-72
2022/05/30 00:13:16;;;;;;;2.40;2.20;;;13.50;57.90;;;-142.21;87.71;112049.66;5079893;28;20443;-72
2022/05/30 00:15:43;;;;;;;2.70;2.40;;;13.50;58.60;;;-142.21;88.31;112049.66;5075109;28;20534;-72
2022/05/30 00:18:12;;;;;;;3.27;2.20;;;13.50;57.80;;;-142.21;88.21;112049.66;5071927;28;20447;-71
2022/05/30 00:20:46;;;;;;;2.50;2.30;;;13.50;57.80;;;-142.21;88.38;112049.66;5086555;28;20442;-72
2022/05/30 00:23:15;;;;;;;2.83;2.20;;;13.40;58.10;;;-142.21;88.93;112049.66;5083433;28;20445;-71
2022/05/30 00:25:43;;;;;;;2.00;1.90;;;13.40;58.20;;;-142.21;88.93;112049.66;5077889;28;20520;-73
2022/05/30 00:28:11;;;;;;;3.63;2.27;;;13.40;58.10;;;-142.21;88.92;112049.66;5081896;28;20554;-72
2022/05/30 00:30:40;;;;;;;2.87;2.20;;;13.40;58.20;;;-142.21;89.46;112049.66;5076392;28;21003;-72
2022/05/30 00:33:07;;;;;;;2.77;2.57;;;13.30;58.30;;;-142.21;89.41;112049.66;5069915;28;20580;-72
2022/05/30 00:35:35;;;;;;;2.20;2.00;;;13.20;58.40;;;-142.21;90.04;112049.66;5083609;28;20447;-72
2022/05/30 00:38:02;;;;;;;3.17;2.33;;;13.20;58.50;;;-142.21;90.33;112049.66;5091650;28;20449;-72
2022/05/30 00:40:29;;;;;;;2.57;2.37;;;13.20;58.50;;;-142.21;90.99;112049.66;5088367;28;20447;-71
2022/05/30 00:42:56;;;;;;;2.60;2.40;;;13.20;58.70;;;-142.21;91.29;112049.66;5084411;28;20830;-72
2022/05/30 00:45:24;;;;;;;2.70;2.50;;;13.20;58.90;;;-142.21;91.29;112049.66;5082862;28;20526;-72
2022/05/30 00:47:54;;;;;;;3.50;3.00;;;13.20;59.10;;;-142.21;91.45;112049.66;5089384;28;20541;-71
2022/05/30 00:50:21;;;;;;;2.10;2.00;;;13.20;59.20;;;-142.21;91.56;112049.66;5092109;28;20560;-71
2022/05/30 00:52:51;;;;;;;2.90;2.30;;;13.10;58.90;;;-142.21;91.86;112049.66;5086404;28;20447;-71
2022/05/30 00:55:22;;;;;;;3.57;2.30;;;13.10;58.90;;;-142.21;91.71;112049.66;5081240;28;20451;-72
2022/05/30 00:57:50;;;;;;;2.87;2.10;;;13.00;59.10;;;-142.21;91.54;112049.66;5080774;28;20530;-72
2022/05/30 01:00:21;;;;;;;1.93;1.83;;;13.00;59.00;;;-142.21;91.45;112049.66;5091897;28;20470;-71
2022/05/30 01:06:30;;;;;;;2.60;2.40;;;12.90;59.10;;;-142.21;91.95;112049.66;5070107;28;20961;-72
2022/05/30 01:08:31;;;;;;;2.30;2.10;;;12.80;59.10;;;-142.21;91.48;112049.66;5079706;28;20508;-72
2022/05/30 01:11:00;;;;;;;2.57;2.30;;;12.80;59.00;;;-142.21;91.25;112049.66;5090764;28;20471;-72
2022/05/30 01:13:27;;;;;;;2.57;2.23;;;12.70;59.00;;;-142.21;91.48;112049.66;5083642;28;20464;-73
2022/05/30 01:15:57;;;;;;;2.60;2.40;;;12.80;59.10;;;-142.21;91.84;112049.66;5093719;28;20503;-72
2022/05/30 01:18:30;;;;;;;3.93;2.67;;;12.70;59.20;;;-142.21;91.32;112049.66;5086242;28;20448;-72
2022/05/30 01:21:26;;;;;;;2.33;2.13;;;12.70;59.00;;;-142.21;91.45;112049.66;5080516;28;20434;-72
2022/05/30 01:24:06;;;;;;;3.33;2.23;;;12.70;59.30;;;-142.21;91.27;112049.66;5061896;28;20439;-72
2022/05/30 01:26:53;;;;;;;3.47;2.53;;;12.70;59.30;;;-142.21;91.34;112049.66;5082183;28;20529;-73
2022/05/30 01:29:28;;;;;;;2.90;2.60;;;12.70;59.50;;;-142.21;91.18;112049.66;5090093;28;20466;-73
2022/05/30 01:31:56;;;;;;;3.00;2.43;;;12.60;59.20;;;-142.21;91.01;112049.66;5079947;28;20439;-72
2022/05/30 01:34:24;;;;;;;2.73;2.27;;;12.60;59.00;;;-142.21;91.19;112049.66;5079089;28;20546;-72
2022/05/30 01:36:52;;;;;;;2.30;2.10;;;12.60;59.10;;;-142.21;91.51;112049.66;5077211;28;20453;-72
2022/05/30 01:39:20;;;;;;;3.33;2.43;;;12.50;59.10;;;-142.21;91.21;112049.66;5086227;28;20829;-72
2022/05/30 01:41:47;;;;;;;2.80;2.43;;;12.50;59.20;;;-142.21;91.39;112049.66;5087602;28;20443;-73
2022/05/30 01:44:15;;;;;;;2.60;2.40;;;12.50;59.20;;;-142.21;91.88;112049.66;5077200;28;20470;-72
2022/05/30 01:46:44;;;;;;;2.90;2.60;;;12.40;59.40;;;-142.21;92.46;112049.66;5093151;28;20940;-72
2022/05/30 01:49:11;;;;;;;2.73;2.53;;;12.40;59.60;;;-142.21;92.59;112049.66;5093325;28;20439;-72
2022/05/30 01:51:39;;;;;;;3.13;2.83;;;12.40;59.60;;;-142.21;92.53;112049.66;5077483;28;20506;-72
2022/05/30 01:54:07;;;;;;;3.30;2.50;;;12.30;59.50;;;-142.21;92.51;112049.66;5085333;28;20442;-72
2022/05/30 01:56:34;;;;;;;3.20;2.40;;;12.30;59.50;;;-142.21;92.45;112049.66;5075340;28;20444;-72
2022/05/30 01:59:01;;;;;;;2.10;1.90;;;12.30;60.30;;;-142.21;92.68;112049.66;5086491;28;20482;-72
2022/05/30 02:01:30;;;;;;;2.87;2.40;;;12.30;59.60;;;-142.21;91.98;112049.66;5078590;28;20443;-71
2022/05/30 02:04:01;;;;;;;2.70;2.50;;;12.30;59.50;;;-142.21;92.20;112049.66;5088824;28;20545;-72
2022/05/30 02:06:28;;;;;;;3.73;2.60;;;12.30;59.50;;;-142.21;92.03;112049.66;5092388;28;20561;-72
2022/05/30 02:08:56;;;;;;;2.43;2.23;;;12.20;59.30;;;-142.21;92.34;112049.66;5088010;28;20962;-72
2022/05/30 02:11:24;;;;;;;2.57;2.37;;;12.20;59.50;;;-142.21;92.86;112049.66;5089349;28;20490;-72
2022/05/30 02:13:51;;;;;;;2.77;2.40;;;12.10;59.50;;;-142.21;93.33;112049.66;5075682;28;20500;-72
2022/05/30 02:19:06;;;;;;;3.67;2.53;;;12.10;60.40;;;-142.21;92.84;112049.66;5078914;28;20441;-72
2022/05/30 02:21:34;;;;;;;2.80;2.60;;;12.10;59.80;;;-142.21;92.58;112049.66;5089680;28;20442;-72
2022/05/30 02:24:02;;;;;;;3.33;2.30;;;12.10;59.70;;;-142.21;92.69;112049.66;5087881;28;20469;-72
2022/05/30 02:26:29;;;;;;;2.50;2.30;;;12.00;59.60;;;-142.21;92.23;112049.66;5092391;28;20592;-72
2022/05/30 02:28:56;;;;;;;2.63;2.43;;;12.00;59.60;;;-142.21;92.46;112049.66;5092300;28;20905;-72
2022/05/30 02:31:24;;;;;;;3.10;2.63;;;12.00;59.60;;;-142.21;92.08;112049.66;5078273;28;20487;-72
2022/05/30 02:36:39;;;;;;;5.03;3.20;;;12.00;59.70;;;-142.21;92.19;112049.66;5073641;28;20979;-72
2022/05/30 02:39:08;;;;;;;4.70;2.60;;;12.00;59.70;;;-142.21;92.71;112049.66;5074784;28;20962;-72
2022/05/30 02:41:35;;;;;;;2.83;2.63;;;11.90;59.70;;;-142.21;92.88;112049.66;5078167;28;20449;-72
2022/05/30 02:44:04;;;;;;;3.13;2.50;;;11.90;59.80;;;-142.21;93.87;112049.66;5076341;28;20538;-72
2022/05/30 02:46:31;;;;;;;2.63;2.43;;;11.70;60.20;;;-142.21;93.93;112049.66;5081242;28;20527;-72
2022/05/30 02:48:58;;;;;;;2.70;2.50;;;11.70;60.30;;;-142.21;93.73;112049.66;5073717;28;20940;-72
2022/05/30 02:51:26;;;;;;;3.13;2.53;;;11.70;60.30;;;-142.21;93.67;112049.66;5088617;28;20478;-72
2022/05/30 02:53:55;;;;;;;3.10;2.23;;;11.70;60.30;;;-142.21;93.62;112049.66;5076730;28;20490;-72
2022/05/30 02:56:22;;;;;;;2.97;2.67;;;11.70;60.00;;;-142.21;94.15;112049.66;5092814;28;20860;-72
2022/05/30 02:58:50;;;;;;;2.50;2.30;;;11.70;60.00;;;-142.21;94.67;112049.66;5077713;28;20858;-73
2022/05/30 03:01:18;;;;;;;3.07;2.87;;;11.70;60.10;;;-142.21;94.13;112049.66;5092798;28;20447;-72
2022/05/30 03:03:45;;;;;;;3.00;2.73;;;11.60;60.20;;;-142.21;93.87;112049.66;5074316;28;20455;-72
2022/05/30 03:06:13;;;;;;;3.43;2.67;;;11.60;60.00;;;-142.21;93.65;112049.66;5082306;28;20509;-73
2022/05/30 03:08:40;;;;;;;2.67;2.47;;;11.60;59.90;;;-142.21;93.65;112049.66;5073771;28;20474;-72
2022/05/30 03:11:10;;;;;;;3.37;2.57;;;11.60;60.10;;;-142.21;93.67;112049.66;5089293;28;20526;-72
2022/05/30 03:13:37;;;;;;;3.50;2.73;;;11.60;60.20;;;-142.21;93.63;112049.66;5075675;28;20444;-72
2022/05/30 03:16:07;;;;;;;3.73;2.53;;;11.50;60.00;;;-142.21;94.11;112049.66;5074141;28;20440;-72
2022/05/30 03:18:37;;;;;;;3.57;3.27;;;11.50;60.10;;;-142.21;94.57;112049.66;5077150;28;20437;-72
2022/05/30 03:21:05;;;;;;;2.83;2.53;;;11.50;60.30;;;-142.21;94.61;112049.66;5092795;28;20958;-72
2022/05/30 03:23:32;;;;;;;2.70;2.40;;;11.50;60.40;;;-142.21;94.54;112049.66;5083345;28;20450;-73
2022/05/30 03:26:00;;;;;;;4.87;2.97;;;11.40;60.30;;;-142.21;94.58;112049.66;5076474;28;20455;-71
2022/05/30 03:28:28;;;;;;;2.70;2.30;;;11.40;61.00;;;-142.21;93.77;112049.66;5072489;28;21023;-72
2022/05/30 03:30:56;;;;;;;2.53;2.33;;;11.40;60.10;;;-142.21;93.81;112049.66;5076516;28;20526;-71
2022/05/30 03:33:23;;;;;;;3.50;2.33;;;11.40;59.90;;;-142.21;93.83;112049.66;5076887;28;20554;-72
2022/05/30 03:35:51;;;;;;;2.60;2.40;;;11.40;60.00;;;-142.21;94.04;112049.66;5082114;28;20447;-72
2022/05/30 03:38:18;;;;;;;2.77;2.40;;;11.40;60.10;;;-142.21;93.91;112049.66;5087371;28;20439;-72
2022/05/30 03:40:45;;;;;;;3.57;2.60;;;11.30;59.90;;;-142.21;93.95;112049.66;5073452;28;20471;-72
2022/05/30 03:43:13;;;;;;;3.77;2.40;;;11.30;59.90;;;-142.21;93.91;112049.66;5072197;28;20534;-72
2022/05/30 03:45:44;;;;;;;2.67;2.30;;;11.30;60.00;;;-142.21;94.05;112049.66;5081135;28;20474;-72
2022/05/30 03:48:15;;;;;;;2.40;2.20;;;11.30;60.20;;;-142.21;93.61;112049.66;5092652;28;20519;-72
2022/05/30 03:50:43;;;;;;;8.37;3.57;;;11.30;60.10;;;-142.21;93.50;112049.66;5077273;28;20517;-72
2022/05/30 03:53:10;;;;;;;3.67;2.50;;;11.30;60.10;;;-142.21;94.03;112049.66;5091295;28;20444;-72
2022/05/30 03:55:42;;;;;;;3.17;2.87;;;11.20;60.10;;;-142.21;93.87;112049.66;5078878;28;20473;-72
2022/05/30 03:58:12;;;;;;;2.80;2.30;;;11.20;60.20;;;-142.21;94.25;112049.66;5072700;28;20446;-72
2022/05/30 04:00:44;;;;;;;2.40;2.20;;;11.20;60.20;;;-142.21;94.67;112049.66;5074133;28;20536;-72
2022/05/30 04:03:12;;;;;;;2.77;2.57;;;11.20;60.30;;;-142.21;93.84;112049.66;5071853;28;20547;-72
2022/05/30 04:05:39;;;;;;;2.93;2.47;;;11.20;60.10;;;-142.21;93.98;112049.66;5078241;28;20477;-72
2022/05/30 04:08:08;;;;;;;2.90;2.67;;;11.20;60.10;;;-142.21;94.20;112049.66;5076732;28;20799;-72
2022/05/30 04:10:35;;;;;;;2.83;2.20;;;11.20;60.30;;;-142.21;94.87;112049.66;5074954;28;20479;-72
2022/05/30 04:13:07;;;;;;;2.57;2.37;;;11.10;60.40;;;-142.21;95.53;112049.66;5072545;28;20458;-72
2022/05/30 04:15:34;;;;;;;3.50;2.80;;;11.10;60.80;;;-142.21;95.86;112049.66;5081065;28;20438;-72
2022/05/30 04:18:03;;;;;;;2.70;2.50;;;11.10;60.90;;;-142.21;96.13;112049.66;5085826;28;20872;-72
2022/05/30 04:20:31;;;;;;;2.70;2.40;;;11.00;62.00;;;-142.21;96.85;112049.66;5071692;28;20956;-72
2022/05/30 04:22:59;;;;;;;3.10;2.80;;;11.10;61.70;;;-142.21;97.35;112049.66;5082559;28;20493;-72
2022/05/30 04:25:26;;;;;;;2.67;2.47;;;11.00;61.70;;;-142.21;97.90;112049.66;5091229;28;20513;-72
2022/05/30 04:27:53;;;;;;;2.73;2.47;;;11.10;62.00;;;-142.21;98.57;112049.66;5078642;28;20455;-72
2022/05/30 04:30:21;;;;;;;2.70;2.40;;;11.10;62.50;;;-142.21;98.23;112049.66;5077318;28;20790;-72
2022/05/30 04:32:48;;;;;;;3.57;2.60;;;11.10;62.50;;;-142.21;98.57;112049.66;5082115;28;20581;-72
2022/05/30 04:35:18;;;;;;;5.57;2.77;;;11.10;62.70;;;-142.21;100.00;112049.66;5072777;28;20523;-72
2022/05/30 04:37:47;;;;;;;5.67;2.80;;;11.20;63.40;;;-142.21;100.00;112049.66;5072467;28;20512;-72
2022/05/30 04:40:17;;;;;;;4.77;3.00;;;11.20;63.80;;;-142.21;100.00;112049.66;5084213;28;20538;-71
2022/05/30 04:42:45;;;;;;;6.53;3.63;;;11.20;63.90;;;-142.21;100.00;112049.66;5084651;28;20444;-71
2022/05/30 04:45:14;;;;;;;5.77;3.00;;;11.30;64.40;;;-142.21;100.00;112049.66;5072609;28;20534;-72
2022/05/30 04:47:42;;;;;;;3.47;2.70;;;11.30;64.10;;;-142.21;100.00;112049.66;5075248;28;20450;-71
2022/05/30 04:50:14;;;;;;;3.43;2.60;;;11.30;63.80;;;-142.21;100.00;112049.66;5079785;28;21124;-72
2022/05/30 04:52:45;;;;;;;3.83;2.47;;;11.40;63.90;;;-142.21;100.00;112049.66;5070293;28;20447;-72
2022/05/30 04:55:15;;;;;;;3.90;2.73;;;11.40;64.20;;;-142.21;100.00;112049.66;5091232;28;20521;-72
2022/05/30 04:57:43;;;;;;;4.23;3.10;;;11.50;64.20;;;-142.21;100.00;112049.66;5091472;28;20446;-72
2022/05/30 05:00:14;;;;;;;4.03;2.73;;;11.60;64.20;;;-142.21;100.00;112049.66;5081136;28;20448;-72
2022/05/30 05:02:41;;;;;;;3.03;2.73;;;11.60;64.20;;;-142.21;100.00;112049.66;5078381;28;20606;-72
2022/05/30 05:05:10;;;;;;;2.50;2.20;;;11.70;64.20;;;-142.21;100.00;112049.66;5089703;28;20531;-72
2022/05/30 05:07:45;;;;;;;2.10;1.90;;;11.70;64.20;;;-142.21;100.00;112049.66;5081931;28;20475;-71
2022/05/30 05:10:35;;;;;;;3.60;2.40;;;11.80;64.20;;;-142.21;100.00;112049.66;5072492;28;20942;-72
2022/05/30 05:13:03;;;;;;;2.97;2.67;;;11.90;65.00;;;-142.21;100.00;112049.66;5071858;28;20435;-72
2022/05/30 05:15:30;;;;;;;3.57;2.80;;;11.90;64.60;;;-142.21;100.00;112049.66;5071126;28;20459;-72
2022/05/30 05:17:58;;;;;;;3.27;2.83;;;12.00;64.80;;;-142.21;100.00;112049.66;5078544;28;20528;-72
2022/05/30 05:20:25;;;;;;;3.20;2.90;;;11.90;65.00;;;-142.21;100.00;112049.66;5071404;28;20455;-72
2022/05/30 05:22:54;;;;;;;3.50;3.20;;;12.10;65.30;;;-142.21;100.00;112049.66;5082699;28;20447;-72
2022/05/30 05:25:21;;;;;;;3.47;3.07;;;12.20;65.40;;;-142.21;100.00;112049.66;5063347;28;20847;-72
2022/05/30 05:27:50;;;;;;;4.40;3.77;;;12.30;65.40;;;-142.21;100.00;112049.66;5081274;28;20541;-72
2022/05/30 05:30:18;;;;;;;5.23;3.90;;;12.40;65.50;;;-142.21;100.00;112049.66;5079721;28;20442;-72
2022/05/30 05:32:46;;;;;;;3.50;3.20;;;12.40;65.30;;;-142.21;100.00;112049.66;5079064;28;20490;-72
2022/05/30 05:35:13;;;;;;;3.87;2.90;;;12.50;64.70;;;-142.21;100.00;112049.66;5079365;28;20518;-72
2022/05/30 05:37:41;;;;;;;3.57;3.27;;;12.60;64.90;;;-142.21;100.00;112049.66;5093527;28;20473;-72
2022/05/30 05:40:11;;;;;;;4.57;3.10;;;12.70;64.80;;;-142.21;100.00;112049.66;5081558;28;20450;-72
2022/05/30 05:42:39;;;;;;;3.33;3.00;;;12.80;65.20;;;-142.21;100.00;112049.66;5078684;28;20440;-71
2022/05/30 05:45:10;;;;;;;3.70;3.37;;;12.90;64.40;;;-142.21;100.00;112049.66;5074707;28;20474;-71
2022/05/30 05:47:37;;;;;;;4.37;3.40;;;13.00;65.10;;;-142.21;100.00;112049.66;5075556;28;20466;-72
2022/05/30 05:50:06;;;;;;;3.30;3.00;;;13.10;65.10;;;-142.21;100.00;112049.66;5074330;28;20880;-71
2022/05/30 05:52:33;;;;;;;4.30;3.77;;;13.20;65.30;;;-142.21;100.00;112049.66;5078134;28;20478;-71
2022/05/30 05:55:01;;;;;;;4.77;3.27;;;13.30;65.00;;;-142.21;100.00;112049.66;5077654;28;20443;-71
2022/05/30 05:57:30;;;;;;;4.33;3.40;;;13.30;65.40;;;-142.21;100.00;112049.66;5054428;28;20448;-73
2022/05/30 05:59:57;;;;;;;4.97;3.30;;;13.40;65.20;;;-142.21;100.00;112049.66;5054871;28;21333;-73
2022/05/30 06:02:26;;;;;;;3.83;3.53;;;13.50;64.40;;;-142.21;100.00;112049.66;5068508;28;20446;-72
2022/05/30 06:04:54;;;;;;;5.13;3.37;;;13.60;64.10;;;-142.21;100.00;112049.66;5065558;28;20879;-72
2022/05/30 06:07:21;;;;;;;3.37;3.07;;;13.70;64.20;;;-142.21;100.00;112049.66;5076692;28;20855;-73
2022/05/30 06:09:49;;;;;;;3.57;3.27;;;13.80;64.70;;;-142.21;100.00;112049.66;5087025;28;20452;-73
2022/05/30 06:12:16;;;;;;;3.40;3.10;;;13.90;64.10;;;-142.21;99.97;112049.66;5084817;28;20557;-72
2022/05/30 06:14:45;;;;;;;3.43;3.13;;;13.90;63.60;;;-142.21;99.71;112049.66;5076396;28;20442;-73
2022/05/30 06:17:12;;;;;;;5.80;3.73;;;14.00;63.30;;;-142.21;99.68;112049.66;5074707;28;20443;-72
2022/05/30 06:19:40;;;;;;;4.07;3.37;;;14.10;63.50;;;-142.21;99.61;112049.66;5055061;28;20431;-72
2022/05/30 06:22:07;;;;;;;7.43;3.53;;;14.20;63.20;;;-142.21;99.03;112049.66;5074693;28;20439;-72
2022/05/30 06:24:34;;;;;;;3.80;3.23;;;14.30;63.00;;;-142.21;97.64;112049.66;5073909;28;20505;-73
2022/05/30 06:27:06;;;;;;;3.63;3.33;;;14.30;62.50;;;-142.21;97.91;112049.66;5092416;28;20532;-72
2022/05/30 06:29:33;;;;;;;3.57;3.27;;;14.50;62.70;;;-142.21;97.89;112049.66;5091502;28;20504;-72
2022/05/30 06:32:02;;;;;;;3.53;3.20;;;14.50;62.40;;;-142.21;97.92;112049.66;5084467;28;20511;-72
2022/05/30 06:34:30;;;;;;;5.57;3.17;;;14.60;62.60;;;-142.21;98.21;112049.66;5072234;28;20479;-72
2022/05/30 06:36:57;;;;;;;4.87;3.70;;;14.70;62.40;;;-142.21;97.16;112049.66;5083314;28;20448;-72
2022/05/30 06:39:27;;;;;;;3.57;2.93;;;14.80;61.90;;;-142.21;96.01;112049.66;5085330;28;20518;-71
2022/05/30 06:41:55;;;;;;;2.97;2.70;;;14.90;61.40;;;-142.21;95.35;112049.66;5074606;28;20446;-72
2022/05/30 06:44:22;;;;;;;6.63;3.20;;;15.00;60.80;;;-142.21;95.11;112049.66;5082666;28;20451;-72
2022/05/30 06:46:52;;;;;;;5.20;2.90;;;15.00;60.60;;;-142.21;95.68;112049.66;5091456;28;20442;-72
2022/05/30 06:49:21;;;;;;;4.87;2.80;;;15.10;61.10;;;-142.21;94.63;112049.66;5081133;28;20502;-73
2022/05/30 06:51:48;;;;;;;4.03;2.83;;;15.20;60.40;;;-142.21;94.90;112049.66;5074313;28;20940;-72
2022/05/30 06:54:16;;;;;;;4.57;3.30;;;15.30;60.50;;;-142.21;94.09;112049.66;5074014;28;20936;-72
2022/05/30 06:58:12;;;;;;;3.90;2.80;;;15.40;60.00;;;-142.21;93.79;112049.66;5073549;28;20459;-72
2022/05/30 06:59:32;;;;;;;3.17;2.60;;;15.50;59.80;;;-142.21;93.79;112049.66;5073115;28;20443;-72
2022/05/30 07:02:00;;;;;;;3.93;2.80;;;15.60;59.80;;;-142.21;93.23;112049.66;5073989;28;20467;-72
2022/05/30 07:04:32;;;;;;;3.83;2.83;;;15.70;59.80;;;-142.21;92.99;112049.66;5072920;28;21065;-73
2022/05/30 07:07:04;;;;;;;3.23;2.53;;;15.80;59.60;;;-142.21;92.03;112049.66;5074074;28;20501;-72
2022/05/30 07:09:33;;;;;;;3.70;2.50;;;15.80;59.20;;;-142.21;91.46;112049.66;5081065;28;20453;-72
2022/05/30 07:12:00;;;;;;;2.70;2.23;;;15.90;59.10;;;-142.21;91.23;112049.66;5093420;28;20573;-72
2022/05/30 07:14:27;;;;;;;3.93;2.70;;;16.00;58.80;;;-142.21;90.81;112049.66;5093116;28;20537;-72
2022/05/30 07:16:55;;;;;;;3.20;2.50;;;16.10;58.40;;;-142.21;90.11;112049.66;5093714;28;20533;-72
2022/05/30 07:19:22;;;;;;;2.67;2.40;;;16.20;58.40;;;-142.21;89.40;112049.66;5093293;28;20529;-72
2022/05/30 07:21:51;;;;;;;2.80;2.60;;;16.30;58.10;;;-142.21;90.71;112049.66;5093625;28;20479;-72
2022/05/30 07:24:18;;;;;;;4.13;2.23;;;16.50;58.40;;;-142.21;89.23;112049.66;5088696;28;20853;-72
2022/05/30 07:26:45;;;;;;;3.20;2.20;;;16.60;58.10;;;-142.21;88.62;112049.66;5073026;28;20454;-72
2022/05/30 07:29:13;;;;;;;2.30;2.10;;;16.70;57.70;;;-142.21;86.96;112049.66;5073109;28;20469;-72
2022/05/30 07:31:40;;;;;;;2.40;1.90;;;16.70;57.00;;;-142.21;85.82;112049.66;5072832;28;20491;-72
2022/05/30 07:34:07;;;;;;;1.83;1.73;;;16.80;56.80;;;-142.21;84.70;112049.66;5073379;28;20455;-72
2022/05/30 07:36:35;;;;;;;2.30;2.10;;;16.90;56.30;;;-142.21;84.17;112049.66;5072341;28;20506;-72
2022/05/30 07:39:05;;;;;;;1.73;1.63;;;17.10;56.40;;;-142.21;82.53;112049.66;5078473;28;20838;-71
2022/05/30 07:41:32;;;;;;;2.00;1.73;;;17.20;55.60;;;-142.21;82.15;112049.66;5071760;28;20475;-72
2022/05/30 07:44:00;;;;;;;2.20;1.83;;;17.30;55.40;;;-142.21;81.98;112049.66;5073134;28;20471;-72
2022/05/30 07:46:27;;;;;;;2.73;2.00;;;17.40;55.70;;;-142.21;81.77;112049.66;5072513;28;20443;-72
2022/05/30 07:48:54;;;;;;;2.67;1.97;;;17.50;55.30;;;-142.21;82.49;112049.66;5072923;28;20500;-72
2022/05/30 07:51:22;;;;;;;2.47;2.03;;;17.60;55.40;;;-142.21;81.00;112049.66;5072302;28;20533;-70
2022/05/30 07:53:50;;;;;;;2.57;1.80;;;17.60;55.00;;;-142.21;79.38;112049.66;5072520;28;20471;-72
2022/05/30 07:56:19;;;;;;;2.67;1.80;;;17.80;54.80;;;-142.21;77.39;112049.66;5072632;28;20866;-72
2022/05/30 07:58:47;;;;;;;2.23;2.03;;;17.90;54.10;;;-142.21;80.61;112049.66;5072722;28;20528;-72
2022/05/30 08:01:18;;;;;;;2.13;1.73;;;17.90;54.70;;;-142.21;76.10;112049.66;5072876;28;20506;-72
2022/05/30 08:03:46;;;;;;;2.27;1.80;;;18.10;53.60;;;-142.21;77.08;112049.66;5072234;28;20927;-72
2022/05/30 08:06:17;;;;;;;2.20;2.00;;;18.10;53.60;;;-142.21;76.95;112049.66;5072356;28;20532;-72
2022/05/30 08:08:45;;;;;;;2.70;1.70;;;18.20;53.60;;;-142.21;75.36;112049.66;5071547;28;20439;-73
2022/05/30 08:11:15;;;;;;;2.07;1.80;;;18.30;53.20;;;-142.21;75.51;112049.66;5072109;28;20497;-72
2022/05/30 08:13:45;;;;;;;2.90;1.87;;;18.40;53.10;;;-142.21;75.70;112049.66;5072086;28;20534;-73
2022/05/30 08:16:14;;;;;;;2.17;1.70;;;18.50;53.10;;;-142.21;74.25;112049.66;5072614;28;20820;-71
2022/05/30 08:18:42;;;;;;;1.67;1.57;;;18.50;52.60;;;-142.21;71.74;112049.66;5072041;28;20486;-72
2022/05/30 08:21:09;;;;;;;2.10;1.60;;;18.70;52.00;;;-142.21;74.48;112049.66;5072216;28;20451;-71
2022/05/30 08:23:37;;;;;;;2.43;1.60;;;18.80;52.80;;;-142.21;74.14;112049.66;5071597;28;20444;-72
2022/05/30 08:26:04;;;;;;;2.97;2.00;;;18.90;52.60;;;-142.21;75.96;112049.66;5071813;28;20444;-72
2022/05/30 08:28:33;;;;;;;1.97;1.77;;;19.00;52.90;;;-142.21;71.43;112049.66;5071590;28;21013;-72
2022/05/30 08:31:02;;;;;;;1.73;1.60;;;19.00;51.80;;;-142.21;69.89;112049.66;5072634;28;20443;-72
2022/05/30 08:33:29;;;;;;;4.70;2.03;;;19.00;51.40;;;-142.21;67.87;112049.66;5071494;28;20490;-72
2022/05/30 08:36:03;;;;;;;2.37;1.60;;;19.10;51.10;;;-142.21;67.12;112049.66;5072355;28;20530;-72
2022/05/30 08:38:33;;;;;;;1.50;1.40;;;19.20;50.90;;;-142.21;64.18;112049.66;5076714;28;20478;-72
2022/05/30 08:43:52;;;;;;;2.40;1.60;;;19.40;50.20;;;-142.21;67.02;112049.66;5091796;28;20207;-72
2022/05/30 08:46:36;;;;;;;2.00;1.80;;;19.50;50.80;;;-142.21;68.44;112049.66;5078648;28;20471;-72
2022/05/30 08:49:17;;;;;;;2.97;1.77;;;19.50;51.10;;;-142.21;67.75;112049.66;5072485;28;20552;-72
2022/05/30 08:52:31;;;;;;;1.60;1.50;;;19.60;50.90;;;-142.21;66.55;112049.66;5071268;28;20455;-71
2022/05/30 08:55:26;;;;;;;2.23;1.50;;;19.70;50.20;;;-142.21;68.72;112049.66;5052546;28;20573;-71
2022/05/30 08:58:08;;;;;;;2.37;1.40;;;19.80;50.80;;;-142.21;71.88;112049.66;5071985;28;20257;-72
2022/05/30 09:00:42;;;;;;;1.70;1.60;;;19.90;51.90;;;-142.21;67.66;112049.66;5072010;28;20189;-71
2022/05/30 09:03:21;;;;;;;3.83;1.50;;;20.00;51.10;;;-142.21;65.65;112049.66;5071941;28;20341;-72
2022/05/30 09:05:54;;;;;;;1.77;1.67;;;20.10;50.20;;;-142.21;58.71;112049.66;5072118;28;20548;-72
2022/05/30 09:08:30;;;;;;;2.07;1.87;;;20.20;49.00;;;-142.21;57.24;112049.66;5073664;28;20276;-71
2022/05/30 09:11:03;;;;;;;2.03;1.60;;;20.20;48.10;;;-142.21;62.08;112049.66;5083694;28;20815;-71
2022/05/30 09:13:37;;;;;;;1.73;1.50;;;20.30;49.30;;;-142.21;60.57;112049.66;5075450;28;20221;-72
2022/05/30 09:16:16;;;;;;;2.47;1.50;;;20.50;49.00;;;-142.21;60.24;112049.66;5078081;28;20641;-72
2022/05/30 09:18:53;;;;;;;1.87;1.57;;;20.60;49.00;;;-142.21;53.18;112049.66;5095420;28;20189;-72
2022/05/30 09:21:25;;;;;;;3.83;1.67;;;20.70;47.10;;;-142.21;53.16;112049.66;5094390;28;20196;-73
2022/05/30 09:23:53;;;;;;;2.57;1.80;;;20.70;46.70;;;-142.21;49.93;112049.66;5076306;28;20193;-72
2022/05/30 09:26:26;;;;;;;2.77;1.47;;;20.70;46.00;;;-142.21;51.57;112049.66;5055485;28;20260;-72
2022/05/30 09:28:55;;;;;;;1.77;1.50;;;20.70;46.50;;;-142.21;51.71;112049.66;5079487;28;20216;-72
2022/05/30 09:31:35;;;;;;;2.37;1.67;;;20.80;46.80;;;-142.21;54.70;112049.66;5094178;28;20610;-72
2022/05/30 09:34:41;;;;;;;2.07;1.67;;;20.80;47.10;;;-142.21;52.70;112049.66;5088457;28;20224;-72
2022/05/30 09:37:08;;;;;;;2.10;1.37;;;20.80;46.30;;;-142.21;51.89;112049.66;5085423;28;20189;-71
2022/05/30 09:39:49;;;;;;;2.80;1.70;;;20.80;46.30;;;-142.21;51.82;112049.66;5075720;28;20209;-72
2022/05/30 09:42:30;;;;;;;1.73;1.63;;;20.80;46.30;;;-142.21;52.63;112049.66;5095075;28;20192;-72
2022/05/30 09:45:09;;;;;;;3.10;1.83;;;21.00;46.60;;;-142.21;50.45;112049.66;5095575;28;20192;-71
2022/05/30 09:47:38;;;;;;;2.20;1.60;;;21.10;46.50;;;-142.21;46.40;112049.66;5079198;28;20239;-72
2022/05/30 09:50:22;;;;;;;1.60;1.50;;;21.00;44.30;;;-142.21;47.73;112049.66;5092453;28;20197;-72
2022/05/30 09:52:49;;;;;;;1.60;1.50;;;20.80;45.00;;;-142.21;53.55;112049.66;5082119;28;20217;-72
2022/05/30 09:55:31;;;;;;;2.83;1.80;;;20.80;46.90;;;-142.21;52.69;112049.66;5077889;28;20284;-72
2022/05/30 09:58:00;;;;;;;2.17;1.50;;;20.90;47.40;;;-142.21;52.08;112049.66;5074379;28;20284;-71
2022/05/30 10:00:50;;;;;;;2.00;1.70;;;21.00;46.60;;;-142.21;52.04;112049.66;5075391;28;20201;-72
2022/05/30 10:03:33;;;;;;;1.77;1.07;;;21.20;46.90;;;-142.21;52.23;112049.66;5074660;28;20294;-71
2022/05/30 10:06:16;;;;;;;2.67;1.60;;;21.30;46.50;;;-142.21;51.11;112049.66;5074305;28;20237;-71
2022/05/30 10:08:46;;;;;;;1.77;1.63;;;21.50;46.40;;;-142.21;48.37;112049.66;5073853;28;20698;-71
2022/05/30 10:11:32;;;;;;;2.47;1.60;;;21.70;45.50;;;-142.21;47.30;112049.66;5078676;28;20197;-71
2022/05/30 10:14:00;;;;;;;2.80;1.80;;;21.80;44.80;;;-142.21;47.43;112049.66;5072565;28;20217;-71
2022/05/30 10:16:34;;;;;;;1.70;1.60;;;21.80;44.90;;;-142.21;50.32;112049.66;5074745;28;20205;-71
2022/05/30 10:19:06;;;;;;;2.07;1.27;;;22.00;46.00;;;-142.21;46.74;112049.66;5076240;28;20189;-71
2022/05/30 10:28:17;;;;;;;1.80;1.70;;;22.30;42.70;;;-142.21;43.62;112049.66;5086673;28;20340;-71